GW0458 Weather Reports


Display with metric or nautical units.
time (UTC)temp
F
wind
direction
speed
MPH
gust
MPH
rain 1hr
in
rain 24hr
in
rain mn
in
humidity
%
barometer
mb
20240523133747 49 148 1.0 1.0 0.00 0.00 0.00 89 1028.9
20240523130747 48 162 2.0 3.0 0.00 0.00 0.00 90 1029.0
20240523123747 48 161 0.0 0.0 0.00 0.00 0.00 91 1028.8
20240523120747 48 167 2.0 2.0 0.00 0.00 0.00 93 1028.7
20240523113746 48 146 2.0 2.0 0.00 0.00 0.00 93 1028.7
20240523110745 48 126 3.0 6.0 0.00 0.00 0.00 92 1028.7
20240523103744 48 162 2.0 2.0 0.00 0.00 0.00 92 1028.7
20240523100744 47 163 1.0 1.0 0.00 0.00 0.00 94 1028.7
20240523093743 48 178 2.0 2.0 0.00 0.00 0.00 94 1028.3
20240523090742 47 163 0.0 0.0 0.00 0.00 0.00 95 1028.0
20240523083741 48 150 1.0 1.0 0.00 0.00 0.00 94 1027.9
20240523080742 48 167 0.0 0.0 0.00 0.00 0.00 91 1027.8
20240523073741 49 171 0.0 0.0 0.00 0.00 0.00 92 1027.2
20240523070739 50 165 0.0 0.0 0.00 0.00 0.00 91 1027.0
20240523063738 52 177 2.0 2.0 0.00 0.00 0.00 86 1026.7
20240523060738 53 147 0.0 0.0 0.00 0.00 0.00 85 1026.9
20240523053736 53 161 1.0 1.0 0.00 0.00 0.00 83 1026.9
20240523050737 53 158 1.0 1.0 0.00 0.00 0.00 81 1026.6
20240523043735 54 174 0.0 0.0 0.00 0.00 0.00 80 1026.4
20240523040735 55 174 1.0 1.0 0.00 0.00 0.00 76 1026.0
20240523033735 55 185 2.0 2.0 0.00 0.00 0.00 75 1025.7
20240523030734 56 158 2.0 3.0 0.00 0.00 0.00 72 1025.3
20240523023733 56 173 0.0 0.0 0.00 0.00 0.00 67 1025.1
20240523020733 58 180 0.0 0.0 0.00 0.00 0.00 65 1024.9
20240523013733 58 186 0.0 1.0 0.00 0.00 0.00 67 1024.7
20240523010732 61 170 0.0 1.0 0.00 0.00 0.00 57 1024.3
20240523003733 59 191 1.0 1.0 0.00 0.00 0.00 64 1024.0
20240523000732 59 178 1.0 1.0 0.00 0.00 0.00 61 1023.7
20240522233732 58 191 1.0 1.0 0.00 0.00 0.00 64 1023.4
20240522230731 59 202 2.0 2.0 0.00 0.00 0.00 67 1023.6
20240522223730 59 228 1.0 1.0 0.00 0.00 0.00 65 1023.7
20240522220729 59 249 1.0 2.0 0.00 0.00 0.00 67 1023.3
20240522213728 58 191 0.0 1.0 0.00 0.00 0.00 66 1022.9
20240522210728 57 247 2.0 2.0 0.00 0.00 0.00 67 1022.9
20240522203728 57 186 2.0 2.0 0.00 0.00 0.00 68 1022.6
20240522200727 56 229 2.0 2.0 0.00 0.00 0.00 70 1022.5
20240522193728 55 352 2.0 3.0 0.00 0.00 0.00 71 1022.2
20240522190727 55 187 1.0 2.0 0.00 0.00 0.00 75 1021.8
20240522183725 53 115 2.0 2.0 0.00 0.00 0.00 74 1021.5
20240522180724 54 204 1.0 1.0 0.00 0.00 0.00 73 1021.2
20240522173723 53 178 0.0 0.0 0.00 0.00 0.00 78 1020.6
20240522170722 52 183 1.0 2.0 0.00 0.00 0.00 78 1020.7
20240522163721 51 177 0.0 0.0 0.00 0.00 0.00 82 1020.4
20240522160719 50 174 0.0 0.0 0.00 0.00 0.00 88 1020.6
20240522153719 48 196 1.0 1.0 0.00 0.00 0.00 92 1020.2
20240522150718 47 143 1.0 2.0 0.00 0.00 0.00 94 1019.8
20240522143717 46 181 0.0 0.0 0.00 0.00 0.00 99 1019.3
20240522140717 45 179 0.0 0.0 0.00 0.00 0.00 99 1019.2